Alor Star, Malaysia

6:04 PM MYT on December 19, 2014 (GMT +0800)
Hat Yai International | Change Station
CLOSE
Current Station
Airport
Location: Hat Yai,
Elevation: 89 ft
Nearby Weather Stations

Elev 89 ft 6.93 °N, 100.39 °E | Updated 34 minutes ago

Mostly Cloudy
Mostly Cloudy
84 °F
Feels Like 96 °F
N
13
Wind Variable Wind from NE

Today
High -- | Low -- °F
--% Chance of Precip.
Yesterday
High -- | Low -- °F
Precip. -- in
7:22 AM 7:08 PM
Waning Crescent, 9% visible
Pressure 29.83 in
Visibility 6.2 miles
Clouds Few 2000 ft
Mostly Cloudy 12000 ft
Mostly Cloudy 30000 ft
Heat Index 96 °F
Dew Point 79 °F
Humidity 84%
Rainfall 0.00 in
Snow Depth Not available.
UV 1 out of 12
Pollen Not available.
Air Quality Not available.
Flu Activity Not available.
METAR VTSS 190930Z 05011KT 9999 FEW020 BKN120 BKN300 29/26 Q1010 A2983 NOSIG

More Conditions Fewer Conditions

Pressure 29.83 in
Visibility 6.2 miles
Clouds Few 2000 ft
Mostly Cloudy 12000 ft
Mostly Cloudy 30000 ft
Heat Index 96 °F
Dew Point 79 °F
Humidity 84%
Rainfall 0.00 in
Snow Depth Not available.
UV 1 out of 12
Pollen Not available.
Air Quality Not available.
Flu Activity Not available.
METAR VTSS 190930Z 05011KT 9999 FEW020 BKN120 BKN300 29/26 Q1010 A2983 NOSIG

More Conditions Fewer Conditions

10-Day Weather Forecast

Almanac

Astronomy

Dec. 19, 2014 Rise Set
Actual Time
Civil Twilight
Nautical Twilight
Astronomical Twilight
Moon
Length of Visible Light
Length of Day
Tomorrow will be .
, % of the Moon is Illuminated

Today's Extremes

Country Highs Country Lows

Community

WunderPhotos

Upload Photos

1,778,966 photos uploaded!

WunderBlogs® & News

Nearby

Air Quality

  Air Quality AQ Index Pollutant
Not available.

Snow Depth

Station Depth Elevation

Earthquake Activity

City Distance Mag. Time & Date
Minimum magnitude displayed is 2.5.

Coastal Water Temperatures

Place Temperature

Nearby Weather Stations